Flight Track Log - Related Links

Times and Time Zones

All times are in EST time to prevent confusion due to time zone crossing. See the FLG4262 flight status page for this flight to view local times or setup timezone preferences in your user account.


Time Position Orientation Groundspeed Altitude Reporting Facility
EST Latitude Longitude Course Direction KTS MPH feet Rate Location/Type
Wed 05:24:44 PM 42.2508 -76.0683 294° West 157 181 6,200  Level New York Center
Wed 05:25:44 PM 42.2722 -76.1483 290° West 196 226 8,800 2,650 Climbing New York Center
Wed 05:26:44 PM 42.2969 -76.2403 290° West 233 268 11,500 2,100 Climbing New York Center
Wed 05:27:44 PM 42.3222 -76.3292 291° West 259 298 13,000 1,850 Climbing New York Center
Wed 05:28:44 PM 42.3525 -76.4356 291° West 292 336 15,200 1,709 Climbing New York Center
Wed 05:30:29 PM 42.4106 -76.6458 291° West 344 396 17,700 1,607 Climbing Cleveland Center
Wed 05:31:32 PM 42.4436 -76.7711 290° West 352 405 19,700 1,920 Climbing Cleveland Center
Wed 05:32:34 PM 42.4756 -76.8917 290° West 346 398 21,700 1,113 Climbing Cleveland Center
Wed 05:33:36 PM 42.5164 -77.0425 290° West 357 411 22,000 919 Climbing Cleveland Center
Wed 05:34:38 PM 42.5453 -77.1833 286° West 387 445 23,600 1,306 Climbing Cleveland Center
Wed 05:35:40 PM 42.5533 -77.3261 274° West 383 441 24,700 919 Climbing Cleveland Center
Wed 05:36:42 PM 42.5625 -77.4800 275° West 387 445 25,500 726 Climbing Cleveland Center
Wed 05:37:44 PM 42.5703 -77.6269 274° West 391 450 26,200 677 Climbing Cleveland Center
Wed 05:38:46 PM 42.5792 -77.7772 275° West 396 456 26,900 387 Climbing Cleveland Center
Wed 05:39:48 PM 42.5881 -77.9325 274° West 404 465 27,000 435 Climbing Cleveland Center
Wed 05:40:50 PM 42.5964 -78.0908 274° West 418 481 27,800 484 Climbing Cleveland Center
Wed 05:41:52 PM 42.6039 -78.2456 274° West 412 474 28,000 96 Climbing Cleveland Center
Wed 05:42:55 PM 42.6142 -78.4353 274° West 420 483 28,000  Level Cleveland Center
Wed 05:43:57 PM 42.6219 -78.5989 274° West 435 501 28,000  Level Cleveland Center
Wed 05:44:59 PM 42.6300 -78.7589 274° West 429 494 28,000  Level Cleveland Center
Wed 05:46:01 PM 42.6361 -78.9194 273° West 427 491 28,000  Level Cleveland Center
Wed 05:47:03 PM 42.6431 -79.0811 273° West 430 495 28,000  Level Cleveland Center
Wed 05:48:05 PM 42.6519 -79.2750 274° West 430 495 28,000  Level Cleveland Center
Wed 05:49:07 PM 42.6578 -79.4369 273° West 431 496 28,000  Level Cleveland Center
Wed 05:50:09 PM 42.6642 -79.5994 273° West 431 496 28,000  Level Cleveland Center
Wed 05:51:11 PM 42.6706 -79.7617 273° West 433 498 28,000  Level Cleveland Center
Wed 05:52:13 PM 42.6764 -79.9231 273° West 430 495 28,000  Level Cleveland Center
Wed 05:53:15 PM 42.6814 -80.1036 272° West 433 498 28,000  Level Cleveland Center
Wed 05:54:17 PM 42.6875 -80.2683 273° West 435 501 28,000  Level Cleveland Center
Wed 05:55:20 PM 42.6919 -80.4322 272° West 432 497 28,000  Level Cleveland Center
Wed 05:56:22 PM 42.6975 -80.5978 273° West 435 501 28,000 -194 Level Cleveland Center
Wed 05:57:24 PM 42.7014 -80.7642 272° West 439 505 27,600 -1,016 Descending Cleveland Center
Wed 05:58:26 PM 42.6989 -80.9561 269° West 435 501 25,900 -1,500 Descending Cleveland Center
Wed 05:59:28 PM 42.6800 -81.1133 261° West 422 486 24,500 -1,355 Descending Cleveland Center
Wed 06:00:30 PM 42.6625 -81.2653 261° West 408 470 23,100 -1,355 Descending Cleveland Center
Wed 06:01:32 PM 42.6453 -81.4161 261° West 402 463 21,700 -1,355 Descending Cleveland Center
Wed 06:02:34 PM 42.6281 -81.5600 261° West 390 449 20,300 -1,403 Descending Cleveland Center
Wed 06:03:36 PM 42.6111 -81.7011 261° West 379 436 18,800 -1,306 Descending Cleveland Center
Wed 06:04:38 PM 42.5939 -81.8531 261° West 372 428 17,600 -1,258 Descending Cleveland Center
Wed 06:05:40 PM 42.5769 -81.9864 260° West 362 417 16,200 -1,161 Descending Cleveland Center
Wed 06:06:42 PM 42.5617 -82.1144 261° West 350 403 15,200 -1,000 Descending Cleveland Center
Wed 06:06:58 PM 42.5575 -82.1594 263° West 345 397 14,900 -1,019 Descending Cleveland Center
Wed 06:07:35 PM 42.5453 -82.2456 259° West 343 395 14,300 -766 Descending Cleveland Center
Wed 06:07:45 PM 42.5447 -82.2392 97° East 341 392 14,300 -968 Level Cleveland Center
Wed 06:08:37 PM 42.5303 -82.3767 262° West 346 398 13,300 -1,161 Descending Cleveland Center
Wed 06:08:47 PM 42.5258 -82.3936 250° West 344 396 13,100 -984 Descending Cleveland Center
Wed 06:09:38 PM 42.5150 -82.5050 263° West 345 397 12,300 -968 Descending Cleveland Center
Wed 06:09:49 PM 42.5094 -82.5219 246° West 346 398 12,100 -787 Descending Cleveland Center
Wed 06:10:39 PM 42.4792 -82.6250 248° West 316 364 11,500 -677 Descending Cleveland Center
Wed 06:10:51 PM 42.4744 -82.6342 235° Southwest 327 376 11,400 -1,065 Descending Cleveland Center
Wed 06:11:41 PM 42.4450 -82.7250 246° West 282 325 10,400 -1,065 Descending Cleveland Center
Wed 06:11:53 PM 42.4403 -82.7300 218° Southwest 296 341 10,300 -1,309 Descending Cleveland Center
Wed 06:12:36 PM 42.4161 -82.8031 246° West 246 283 9,200 -1,355 Descending Cleveland Center
Wed 06:12:55 PM 42.4094 -82.8164 236° Southwest 266 306 8,900 -1,574 Descending Cleveland Center
Wed 06:13:37 PM 42.4039 -82.8864 264° West 222 255 7,600 -1,452 Descending Cleveland Center
Wed 06:13:57 PM 42.4044 -82.8989 273° West 233 268 7,400 -1,082 Descending Cleveland Center
Wed 06:14:38 PM 42.4106 -82.9664 277° West 199 229 6,500 -1,161 Descending Cleveland Center
Wed 06:14:59 PM 42.4114 -82.9883 273° West 205 236 6,200 -689 Descending Cleveland Center
Wed 06:15:39 PM 42.4181 -83.0325 282° West 176 203 5,800 -581 Descending Cleveland Center
Wed 06:16:01 PM 42.4200 -83.0533 277° West 185 213 5,600 -689 Descending Cleveland Center
Wed 06:16:40 PM 42.4108 -83.1019 256° West 176 203 5,100 -484 Descending Cleveland Center
Wed 06:17:03 PM 42.4047 -83.1150 238° Southwest 176 203 5,100  Level Cleveland Center
Wed 06:17:47 PM 42.3894 -83.1642 247° West 170 196 5,100  Level Cleveland Center
Wed 06:18:05 PM 42.3850 -83.1711 229° Southwest 166 191 5,100 -393 Level Cleveland Center
Wed 06:18:48 PM 42.3644 -83.2144 237° Southwest 156 180 4,700 -387 Descending Cleveland Center
Wed 06:19:07 PM 42.3597 -83.2175 206° Southwest 153 176 4,700 -1,071 Level Cleveland Center
Wed 06:19:44 PM 42.3372 -83.2417 218° Southwest 125 144 3,700 -1,048 Descending Cleveland Center
Wed 06:20:10 PM 42.3308 -83.2478 215° Southwest 135 155 3,600 -689 Descending Cleveland Center
Wed 06:20:45 PM 42.3081 -83.2686 214° Southwest 123 142 3,000 -871 Descending Cleveland Center
Wed 06:21:12 PM 42.2956 -83.2769 206° Southwest 127 146 2,700 -689 Descending Cleveland Center
Wed 06:21:46 PM 42.2814 -83.2875 209° Southwest 105 121 2,300 -581 Descending Cleveland Center
Wed 06:22:14 PM 42.2708 -83.2944 206° Southwest 113 130 2,100 -590 Descending Cleveland Center
Wed 06:22:47 PM 42.2547 -83.3064 209° Southwest 109 125 1,700 -677 Descending Cleveland Center
Wed 06:23:16 PM 42.2447 -83.3142 210° Southwest 109 125 1,400 -689 Descending Cleveland Center
Wed 06:23:48 PM 42.2281 -83.3278 211° Southwest 114 131 1,000 -387 Descending Cleveland Center
Wed 06:24:18 PM 42.2139 -83.3375 207° Southwest 109 125 1,000  Level Cleveland Center
Wed 06:26:00 PM 42.2000 -83.3500 236° Southwest  Level FlightAware Approximate

Login

Don't have an account? Register now (free) for customized features, flight alerts, and more!